Time;durP1;ratioP1;P1;durP2;ratioP2;P2;SDS_P1;SDS_P2;PMS_P1;PMS_P2;Temp;Humidity;BMP_temperature;BMP_pressure;BME280_temperature;BME280_humidity;BME280_pressure;Samples;Min_cycle;Max_cycle;Signal;HPM_P1;HPM_P2
2024/03/20 00:01:54;;;;;;;36.13;20.83;;;;;;;-145.63;58.40;39247.19;5091696;28;20103;-63
2024/03/20 00:04:20;;;;;;;31.45;20.48;;;;;;;-145.63;58.70;39251.09;5095272;28;20444;-64
2024/03/20 00:06:46;;;;;;;30.67;19.60;;;;;;;-145.63;58.26;39251.09;5095088;28;20024;-64
2024/03/20 00:09:13;;;;;;;33.42;21.10;;;;;;;-145.63;58.98;39241.31;5092495;28;20249;-64
2024/03/20 00:11:39;;;;;;;34.67;20.40;;;;;;;-145.63;58.64;55027.00;5074291;28;20028;-64
2024/03/20 00:14:07;;;;;;;29.88;20.00;;;;;;;-145.63;58.51;55102.19;5092677;28;20449;-64
2024/03/20 00:16:37;;;;;;;34.25;20.27;;;;;;;-145.63;58.42;55077.00;5080871;28;20021;-64
2024/03/20 00:19:03;;;;;;;38.88;21.38;;;;;;;-145.63;59.27;160898.50;5074276;28;20029;-64
2024/03/20 00:21:30;;;;;;;34.47;21.33;;;;;;;-145.63;100.00;61273.97;5079715;28;20071;-63
2024/03/20 00:23:56;;;;;;;32.50;20.35;;;;;;;-145.63;100.00;61273.97;5132551;27;20083;-63
2024/03/20 00:26:21;;;;;;;30.58;20.83;;;;;;;-145.63;100.00;61273.97;5115168;28;20032;-64
2024/03/20 00:28:47;;;;;;;34.00;21.95;;;;;;;-145.63;100.00;61273.97;5130850;27;20080;-65
2024/03/20 00:31:13;;;;;;;32.42;20.10;;;;;;;-145.63;100.00;61273.97;5105921;28;20047;-63
2024/03/20 00:33:38;;;;;;;33.33;22.05;;;;;;;-145.63;100.00;61273.97;5114975;28;20040;-63
2024/03/20 00:36:04;;;;;;;37.90;22.15;;;;;;;-145.63;100.00;61273.97;5133012;27;20027;-63
2024/03/20 00:38:30;;;;;;;37.65;22.05;;;;;;;-145.63;100.00;61273.97;5114794;28;20024;-63
2024/03/20 00:40:56;;;;;;;37.97;21.40;;;;;;;-145.63;100.00;61273.97;5131908;27;20087;-64
2024/03/20 00:43:21;;;;;;;37.03;22.55;;;;;;;-145.63;100.00;61273.97;5135241;27;20027;-64
2024/03/20 00:45:47;;;;;;;35.15;22.15;;;;;;;-145.63;100.00;61273.97;5128137;27;20076;-63
2024/03/20 00:48:13;;;;;;;35.65;22.40;;;;;;;-145.63;100.00;61273.97;5116828;27;20032;-63
2024/03/20 00:50:38;;;;;;;34.80;23.42;;;;;;;-145.63;100.00;61273.97;5126715;27;20034;-64
2024/03/20 00:53:04;;;;;;;39.58;23.73;;;;;;;-145.63;100.00;61273.97;5132670;27;20361;-63
2024/03/20 00:55:29;;;;;;;40.28;24.50;;;;;;;-145.63;100.00;61273.97;5121719;27;20360;-65
2024/03/20 00:57:55;;;;;;;40.00;25.20;;;;;;;-145.63;100.00;61273.97;5122610;27;20057;-64
2024/03/20 01:00:21;;;;;;;38.63;24.67;;;;;;;-145.63;100.00;61273.97;5131782;27;20031;-63
2024/03/20 01:02:47;;;;;;;41.60;24.50;;;;;;;-145.63;100.00;61273.97;5128124;27;20143;-62
2024/03/20 01:05:13;;;;;;;44.10;25.52;;;;;;;-145.63;100.00;61273.97;5134525;27;20031;-64
2024/03/20 01:07:40;;;;;;;37.63;25.05;;;;;;;-145.63;100.00;61273.97;5102337;28;20055;-63
2024/03/20 01:10:06;;;;;;;37.10;24.02;;;;;;;-145.63;100.00;61273.97;5123576;27;20115;-63
2024/03/20 01:12:32;;;;;;;40.88;24.60;;;;;;;-145.63;100.00;61273.97;5130188;27;20035;-63
2024/03/20 01:14:58;;;;;;;37.47;23.15;;;;;;;-145.63;100.00;61273.97;5113898;28;20380;-64
2024/03/20 01:17:23;;;;;;;37.90;24.75;;;;;;;-145.63;100.00;61273.97;5114197;28;20043;-63
2024/03/20 01:19:49;;;;;;;38.65;26.33;;;;;;;-145.63;100.00;61273.97;5114066;28;20086;-64
2024/03/20 01:22:15;;;;;;;40.10;23.98;;;;;;;-145.63;100.00;61273.97;5124337;27;20483;-63
2024/03/20 01:24:41;;;;;;;39.05;25.20;;;;;;;-145.63;100.00;61273.97;5126160;27;20035;-63
2024/03/20 01:27:07;;;;;;;38.30;25.23;;;;;;;-145.63;100.00;61273.97;5133206;27;20031;-63
2024/03/20 01:29:32;;;;;;;41.10;25.85;;;;;;;-145.63;100.00;20631.88;5114129;28;20368;-64
2024/03/20 01:31:58;;;;;;;44.42;26.85;;;;;;;-145.63;100.00;61273.97;5111964;27;20027;-63
2024/03/20 01:34:23;;;;;;;41.33;26.17;;;;;;;-145.63;0.00;170841.25;5122672;27;20039;-64
2024/03/20 01:36:52;;;;;;;44.72;26.05;;;;;;;-145.63;58.07;160433.72;5120659;27;20209;-64
2024/03/20 01:39:18;;;;;;;43.75;25.48;;;;;;;-98.24;0.00;159948.81;5131427;27;20027;-63
2024/03/20 01:41:45;;;;;;;40.78;26.67;;;;;;;-98.24;98.32;159954.09;5113525;28;20028;-63
2024/03/20 01:44:11;;;;;;;43.22;26.10;;;;;;;-145.63;57.77;54969.28;5131676;27;20027;-63
2024/03/20 01:46:37;;;;;;;43.13;26.08;;;;;;;-145.63;57.49;54920.28;5120614;27;20088;-63
2024/03/20 01:49:06;;;;;;;42.33;26.20;;;;;;;-145.63;57.57;54930.88;5122060;27;20107;-63
2024/03/20 01:51:32;;;;;;;45.10;27.67;;;;;;;-145.63;57.26;39247.19;5123804;27;20073;-63
2024/03/20 01:54:03;;;;;;;38.15;25.23;;;;;;;-145.63;57.22;39266.75;5113523;28;20034;-63
2024/03/20 01:56:28;;;;;;;39.13;26.25;;;;;;;-145.63;57.45;39247.19;5113499;28;20031;-63
2024/03/20 01:58:55;;;;;;;38.28;26.95;;;;;;;-145.63;57.88;39264.78;5128631;27;20091;-63
2024/03/20 02:01:23;;;;;;;41.08;27.98;;;;;;;-145.63;57.79;39255.00;5122619;27;20118;-64
2024/03/20 02:03:49;;;;;;;36.30;26.00;;;;;;;-145.63;57.59;39255.00;5113383;28;20024;-64
2024/03/20 02:06:26;;;;;;;41.33;27.02;;;;;;;-145.63;57.17;39225.69;5114844;27;20039;-64
2024/03/20 02:08:53;;;;;;;42.25;26.20;;;;;;;-145.63;57.13;39276.53;5134021;27;20033;-65
2024/03/20 02:11:20;;;;;;;39.03;25.85;;;;;;;-145.63;57.35;39247.19;5133596;27;20372;-65
2024/03/20 02:13:51;;;;;;;38.40;25.85;;;;;;;-145.63;57.15;39262.84;5119257;27;20447;-64
2024/03/20 02:16:19;;;;;;;40.88;25.92;;;;;;;-145.63;57.08;39268.72;5123573;27;20364;-63
2024/03/20 02:18:46;;;;;;;40.78;26.63;;;;;;;-145.63;57.24;39286.31;5127561;27;20054;-65
2024/03/20 02:21:13;;;;;;;45.30;26.23;;;;;;;-145.63;57.20;39227.63;5114014;28;20032;-64
2024/03/20 02:23:39;;;;;;;38.90;26.63;;;;;;;-145.63;57.20;39251.09;5133320;27;20043;-64
2024/03/20 02:26:06;;;;;;;39.53;26.80;;;;;;;-145.63;57.02;39292.19;5115956;27;20156;-64
2024/03/20 02:28:34;;;;;;;38.17;25.45;;;;;;;-145.63;57.55;39217.84;5125856;27;20027;-63
2024/03/20 02:31:02;;;;;;;38.80;26.60;;;;;;;-145.63;57.56;39262.84;5125504;27;20056;-64
2024/03/20 02:33:28;;;;;;;44.08;25.85;;;;;;;-145.63;57.48;39245.25;5116666;28;20038;-63
2024/03/20 02:35:55;;;;;;;33.65;24.77;;;;;;;-145.63;57.52;39253.06;5133134;27;20110;-63
2024/03/20 02:38:24;;;;;;;35.90;25.35;;;;;;;-145.63;57.03;39284.34;5113968;28;20028;-64
2024/03/20 02:40:52;;;;;;;40.95;25.95;;;;;;;-145.63;57.05;39255.00;5113197;28;20114;-64
2024/03/20 02:43:21;;;;;;;40.42;25.83;;;;;;;-145.63;57.75;39233.50;5123048;28;20057;-64
2024/03/20 02:45:46;;;;;;;39.08;25.80;;;;;;;-145.63;57.59;39239.38;5127339;28;20084;-64
2024/03/20 02:48:13;;;;;;;39.45;25.25;;;;;;;-145.63;57.70;39270.66;5113681;28;20406;-63
2024/03/20 02:50:40;;;;;;;37.47;26.00;;;;;;;-145.63;57.88;39255.00;5124727;28;20028;-64
2024/03/20 02:53:06;;;;;;;43.45;27.70;;;;;;;-145.63;57.72;39247.19;5129710;28;20076;-64
2024/03/20 02:55:36;;;;;;;37.70;25.70;;;;;;;-145.63;57.42;39260.88;5121017;28;20094;-64
2024/03/20 02:58:02;;;;;;;43.63;25.45;;;;;;;-145.63;57.95;39272.63;5120532;28;20381;-64
2024/03/20 03:00:29;;;;;;;36.65;25.65;;;;;;;-145.63;57.97;39276.53;5129883;28;20035;-64
2024/03/20 03:02:55;;;;;;;39.78;25.85;;;;;;;-145.63;58.40;39241.31;5127162;28;20035;-63
2024/03/20 03:05:25;;;;;;;39.88;25.95;;;;;;;-145.63;58.20;55032.56;5133425;28;20513;-63
2024/03/20 03:07:51;;;;;;;46.70;26.48;;;;;;;-145.63;58.25;54982.50;5124940;28;20033;-63
2024/03/20 03:10:17;;;;;;;41.25;26.70;;;;;;;-145.63;58.04;54995.06;5104426;28;20042;-64
2024/03/20 03:12:43;;;;;;;36.50;24.90;;;;;;;-145.63;58.12;54995.13;5117596;28;20045;-64
2024/03/20 03:15:10;;;;;;;42.78;25.85;;;;;;;-145.63;57.69;54916.84;5113997;28;20030;-64
2024/03/20 03:17:37;;;;;;;35.97;24.50;;;;;;;-145.63;57.13;39237.41;5112614;28;20023;-65
2024/03/20 03:20:08;;;;;;;37.88;25.60;;;;;;;-145.63;57.43;39251.09;5128576;28;20102;-65
2024/03/20 03:22:39;;;;;;;36.40;24.67;;;;;;;-145.63;57.41;39272.63;5132816;28;20538;-64
2024/03/20 03:25:06;;;;;;;37.03;24.85;;;;;;;-145.63;57.27;39088.78;5124335;28;20389;-64
2024/03/20 03:27:32;;;;;;;35.03;24.20;;;;;;;-145.63;57.19;39219.81;5115735;28;20058;-65
2024/03/20 03:29:57;;;;;;;38.45;24.90;;;;;;;-145.63;57.23;39274.56;5114299;28;20055;-64
2024/03/20 03:32:23;;;;;;;46.10;26.52;;;;;;;-145.63;57.32;39249.16;5132854;28;20569;-65
2024/03/20 03:34:49;;;;;;;42.17;27.20;;;;;;;-145.63;57.52;39219.81;5118476;28;20452;-65
2024/03/20 03:37:14;;;;;;;36.72;26.65;;;;;;;-145.63;57.71;39272.63;5121347;28;20039;-64
2024/03/20 03:39:40;;;;;;;43.58;28.73;;;;;;;-145.63;57.74;39262.84;5127948;28;20088;-65
2024/03/20 03:42:06;;;;;;;45.00;27.67;;;;;;;-145.63;100.00;61273.97;5112036;28;20070;-66
2024/03/20 03:44:31;;;;;;;42.88;27.73;;;;;;;-145.63;100.00;61273.97;5132213;28;20111;-64
2024/03/20 03:46:57;;;;;;;44.80;28.00;;;;;;;-145.63;56.79;39249.16;5117460;28;20028;-64
2024/03/20 03:49:22;;;;;;;44.22;28.60;;;;;;;-145.63;100.00;39221.78;5126485;27;20031;-64
2024/03/20 03:51:48;;;;;;;40.35;27.65;;;;;;;-145.63;100.00;61273.97;5123722;27;20070;-64
2024/03/20 03:54:14;;;;;;;39.03;27.45;;;;;;;-145.63;100.00;61273.97;5135516;27;20039;-65
2024/03/20 03:56:39;;;;;;;47.78;27.85;;;;;;;-145.63;100.00;61273.97;5115830;28;20067;-64
2024/03/20 03:59:05;;;;;;;49.33;28.35;;;;;;;-145.63;100.00;61273.97;5135083;27;20115;-65
2024/03/20 04:01:31;;;;;;;42.42;28.48;;;;;;;-145.63;100.00;61273.97;5127476;27;20027;-63
2024/03/20 04:03:57;;;;;;;45.53;28.27;;;;;;;-145.63;100.00;61273.97;5135851;27;20527;-62
2024/03/20 04:06:23;;;;;;;51.33;29.25;;;;;;;-145.63;100.00;61273.97;5136183;27;20035;-63
2024/03/20 04:08:49;;;;;;;47.25;28.58;;;;;;;-145.63;100.00;61273.97;5136024;27;20069;-61
2024/03/20 04:11:14;;;;;;;44.00;27.75;;;;;;;-145.63;100.00;61273.97;5118000;27;20055;-62
2024/03/20 04:13:40;;;;;;;43.83;27.92;;;;;;;-145.63;100.00;61273.97;5128089;27;20046;-61
2024/03/20 04:16:05;;;;;;;44.33;29.45;;;;;;;-145.63;100.00;61273.97;5127840;27;20059;-61
2024/03/20 04:18:31;;;;;;;44.22;26.98;;;;;;;-145.63;100.00;61273.97;5115030;28;20031;-62
2024/03/20 04:20:57;;;;;;;47.63;27.75;;;;;;;-145.63;100.00;61273.97;5114976;28;20038;-62
2024/03/20 04:23:23;;;;;;;40.72;27.05;;;;;;;-145.63;100.00;61273.97;5133730;27;20376;-60
2024/03/20 04:25:48;;;;;;;41.60;28.85;;;;;;;-145.63;100.00;61273.97;5122059;27;20043;-61
2024/03/20 04:28:14;;;;;;;44.20;28.65;;;;;;;-145.63;100.00;61273.97;5123749;27;20031;-61
2024/03/20 04:30:40;;;;;;;45.15;27.85;;;;;;;-145.63;100.00;61273.97;5131469;27;20531;-63
2024/03/20 04:33:06;;;;;;;48.42;29.73;;;;;;;-145.63;100.00;61273.97;5114596;28;20431;-62
2024/03/20 04:35:33;;;;;;;44.00;29.23;;;;;;;-145.63;100.00;61273.97;5134780;27;20027;-62
2024/03/20 04:37:59;;;;;;;44.63;30.13;;;;;;;-145.63;100.00;61273.97;5131469;27;20023;-61
2024/03/20 04:40:24;;;;;;;42.33;28.65;;;;;;;-145.63;100.00;61273.97;5124919;27;20081;-62
2024/03/20 04:42:50;;;;;;;46.58;28.77;;;;;;;-145.63;100.00;61273.97;5120300;27;20045;-62
2024/03/20 04:45:16;;;;;;;47.35;29.13;;;;;;;-145.63;100.00;61273.97;5134743;27;20027;-62
2024/03/20 04:47:42;;;;;;;39.10;26.70;;;;;;;-145.63;100.00;61273.97;5135558;27;20045;-62
2024/03/20 04:50:11;;;;;;;44.75;28.08;;;;;;;-145.63;100.00;61273.97;5110849;28;20098;-63
2024/03/20 04:52:37;;;;;;;42.00;27.55;;;;;;;-145.63;100.00;61273.97;5114838;28;20407;-62
2024/03/20 04:55:05;;;;;;;46.22;28.95;;;;;;;-145.63;100.00;61273.97;5121191;27;20067;-63
2024/03/20 04:57:31;;;;;;;44.22;28.40;;;;;;;-145.63;100.00;61273.97;5132587;27;20058;-64
2024/03/20 04:59:57;;;;;;;49.33;27.23;;;;;;;-145.63;100.00;61273.97;5114414;28;20070;-63
2024/03/20 05:02:22;;;;;;;42.10;27.92;;;;;;;-145.63;100.00;61273.97;5116545;27;20499;-62
2024/03/20 05:04:48;;;;;;;41.70;28.38;;;;;;;-145.63;100.00;61273.97;5127607;27;20071;-62
2024/03/20 05:07:14;;;;;;;40.65;28.02;;;;;;;-145.63;100.00;61273.97;5134679;27;20754;-63
2024/03/20 05:09:39;;;;;;;41.58;28.77;;;;;;;-145.63;100.00;61273.97;5131392;27;20023;-62
2024/03/20 05:12:06;;;;;;;40.13;28.70;;;;;;;-145.63;100.00;61273.97;5114386;28;20038;-62
2024/03/20 05:14:31;;;;;;;50.53;29.83;;;;;;;-145.63;100.00;61273.97;5133587;27;20046;-63
2024/03/20 05:17:00;;;;;;;45.25;28.95;;;;;;;-145.63;100.00;61273.97;5119890;27;20023;-63
2024/03/20 05:19:28;;;;;;;48.15;28.75;;;;;;;-145.63;100.00;61273.97;5124277;27;20113;-62
2024/03/20 05:21:54;;;;;;;48.63;30.48;;;;;;;-145.63;100.00;61273.97;5128523;27;20028;-62
2024/03/20 05:24:20;;;;;;;56.05;32.90;;;;;;;-145.63;100.00;61273.97;5096424;27;20384;-62
2024/03/20 05:26:46;;;;;;;56.58;33.15;;;;;;;-145.63;100.00;61273.97;5134418;27;20395;-61
2024/03/20 05:29:12;;;;;;;59.30;34.80;;;;;;;-145.63;100.00;61273.97;5117571;27;20027;-62
2024/03/20 05:31:42;;;;;;;54.05;33.13;;;;;;;-145.63;100.00;61273.97;5125737;27;20131;-63
2024/03/20 05:34:10;;;;;;;60.20;34.85;;;;;;;-145.63;100.00;61273.97;5126901;27;20446;-62
2024/03/20 05:36:36;;;;;;;49.45;33.22;;;;;;;-145.63;100.00;61273.97;5114035;28;20090;-62
2024/03/20 05:39:05;;;;;;;54.95;34.03;;;;;;;-145.63;100.00;61273.97;5113489;28;20119;-62
2024/03/20 05:41:31;;;;;;;56.40;34.95;;;;;;;-145.63;100.00;61273.97;5113870;28;20040;-62
2024/03/20 05:43:57;;;;;;;61.58;37.28;;;;;;;-145.63;100.00;61273.97;5127532;27;20333;-63
2024/03/20 05:46:23;;;;;;;68.68;40.45;;;;;;;-145.63;100.00;61273.97;5124831;27;20081;-62
2024/03/20 05:48:50;;;;;;;65.75;38.97;;;;;;;-145.63;100.00;61273.97;5118112;27;20031;-61
2024/03/20 05:51:16;;;;;;;61.58;36.60;;;;;;;-145.63;100.00;61273.97;5119694;27;20031;-62
2024/03/20 05:53:41;;;;;;;62.60;36.22;;;;;;;-145.63;100.00;61273.97;5134250;27;20034;-62
2024/03/20 05:56:07;;;;;;;62.08;38.63;;;;;;;-145.63;100.00;61273.97;5118431;27;20024;-62
2024/03/20 05:58:32;;;;;;;59.05;37.08;;;;;;;-145.63;100.00;61273.97;5105897;27;20490;-62
2024/03/20 06:00:58;;;;;;;62.17;35.83;;;;;;;-145.63;100.00;61273.97;5133547;27;20027;-62
2024/03/20 06:03:24;;;;;;;61.90;35.65;;;;;;;-145.63;100.00;61273.97;5115702;27;20139;-62
2024/03/20 06:05:49;;;;;;;53.90;34.75;;;;;;;-145.63;100.00;61273.97;5134050;27;20111;-62
2024/03/20 06:08:15;;;;;;;54.25;34.00;;;;;;;-145.63;100.00;61273.97;5117391;27;20042;-62
2024/03/20 06:10:42;;;;;;;53.58;33.95;;;;;;;-145.63;100.00;61273.97;5127916;27;20493;-62
2024/03/20 06:13:08;;;;;;;51.38;33.30;;;;;;;-145.63;100.00;61273.97;5112675;28;20566;-62
2024/03/20 06:15:37;;;;;;;59.97;33.88;;;;;;;-145.63;100.00;61273.97;5115150;27;20070;-62
2024/03/20 06:18:03;;;;;;;55.50;33.08;;;;;;;-145.63;100.00;61273.97;5133339;27;20474;-62
2024/03/20 06:20:28;;;;;;;50.97;31.48;;;;;;;-145.63;100.00;61273.97;5114811;27;20059;-63
2024/03/20 06:22:54;;;;;;;58.65;32.55;;;;;;;-145.63;100.00;61273.97;5119273;27;20096;-63
2024/03/20 06:25:20;;;;;;;54.50;33.10;;;;;;;-145.63;100.00;61273.97;5120684;27;20046;-62
2024/03/20 06:27:45;;;;;;;59.00;33.75;;;;;;;-145.63;100.00;61273.97;5129524;27;20460;-62
2024/03/20 06:30:11;;;;;;;51.92;33.25;;;;;;;-145.63;100.00;61273.97;5112621;28;20093;-61
2024/03/20 06:32:42;;;;;;;57.42;34.95;;;;;;;-145.63;100.00;61273.97;5136291;27;20026;-63
2024/03/20 06:35:08;;;;;;;57.72;33.67;;;;;;;-145.63;100.00;61273.97;5137978;27;20027;-63
2024/03/20 06:37:37;;;;;;;56.55;33.72;;;;;;;-145.63;100.00;61273.97;5133260;28;20089;-64
2024/03/20 06:40:06;;;;;;;52.38;32.40;;;;;;;-145.63;100.00;61273.97;5126663;28;20027;-64
2024/03/20 06:42:32;;;;;;;54.85;32.25;;;;;;;-145.63;100.00;61273.97;5112473;28;20023;-63
2024/03/20 06:44:58;;;;;;;43.58;30.23;;;;;;;-145.63;100.00;61273.97;5112373;28;20432;-63
2024/03/20 06:47:25;;;;;;;43.83;29.20;;;;;;;-145.63;100.00;61273.97;5129937;28;20027;-63
2024/03/20 06:49:51;;;;;;;40.42;27.65;;;;;;;-145.63;100.00;61273.97;5120248;28;20035;-62
2024/03/20 06:52:19;;;;;;;47.33;29.40;;;;;;;-145.63;100.00;61273.97;5120158;28;20046;-62
2024/03/20 06:54:46;;;;;;;43.25;27.25;;;;;;;-145.63;100.00;61273.97;5129581;28;20042;-64
2024/03/20 06:57:17;;;;;;;40.70;28.13;;;;;;;-145.63;100.00;61273.97;5119646;28;20088;-61
2024/03/20 06:59:49;;;;;;;38.45;26.63;;;;;;;-145.63;100.00;61273.97;5096993;28;20027;-62
2024/03/20 07:02:15;;;;;;;39.55;26.30;;;;;;;-145.63;100.00;61273.97;5112973;28;20027;-63
2024/03/20 07:04:41;;;;;;;40.33;24.90;;;;;;;-145.63;100.00;61273.97;5126699;27;20088;-63
2024/03/20 07:07:08;;;;;;;37.70;24.63;;;;;;;-145.63;100.00;61273.97;5125371;28;20024;-63
2024/03/20 07:09:34;;;;;;;36.38;24.33;;;;;;;-145.63;100.00;61273.97;5130537;28;20551;-64
2024/03/20 07:12:01;;;;;;;44.22;27.35;;;;;;;-145.63;100.00;61273.97;5127440;28;20028;-64
2024/03/20 07:14:29;;;;;;;41.17;25.25;;;;;;;-145.63;100.00;61273.97;5115060;28;20484;-62
2024/03/20 07:16:56;;;;;;;40.13;26.02;;;;;;;-145.63;100.00;61273.97;5125376;28;20185;-63
2024/03/20 07:19:23;;;;;;;40.10;25.48;;;;;;;-145.63;100.00;61273.97;5124629;28;20470;-63
2024/03/20 07:21:48;;;;;;;39.88;25.52;;;;;;;-145.63;100.00;61273.97;5116411;27;20043;-63
2024/03/20 07:24:15;;;;;;;43.05;25.77;;;;;;;-145.63;100.00;61273.97;5136635;27;20437;-64
2024/03/20 07:26:41;;;;;;;37.40;23.75;;;;;;;-145.63;100.00;61273.97;5117281;27;20067;-63
2024/03/20 07:29:09;;;;;;;32.80;21.85;;;;;;;-145.63;100.00;61273.97;5116067;28;20078;-63
2024/03/20 07:31:38;;;;;;;31.67;20.60;;;;;;;-145.63;100.00;61273.97;5126066;27;20106;-62
2024/03/20 07:34:05;;;;;;;30.65;19.23;;;;;;;-145.63;100.00;61273.97;5133940;27;20470;-64
2024/03/20 07:36:33;;;;;;;32.15;18.83;;;;;;;-145.63;100.00;61273.97;5117161;27;20036;-64
2024/03/20 07:39:00;;;;;;;32.78;20.15;;;;;;;-145.63;100.00;61273.97;5136943;27;20031;-63
2024/03/20 07:41:26;;;;;;;30.45;19.30;;;;;;;-145.63;100.00;61273.97;5113334;27;20051;-64
2024/03/20 07:43:52;;;;;;;30.95;20.77;;;;;;;-145.63;100.00;61273.97;5134165;27;20114;-63
2024/03/20 07:46:18;;;;;;;28.95;16.80;;;;;;;-145.63;100.00;61273.97;5136293;27;20105;-63
2024/03/20 07:48:47;;;;;;;28.50;16.27;;;;;;;-145.63;100.00;61273.97;5115335;27;20039;-64
2024/03/20 07:51:18;;;;;;;27.48;14.90;;;;;;;-145.63;100.00;61273.97;5115395;28;20445;-64
2024/03/20 07:53:44;;;;;;;30.87;16.70;;;;;;;-145.63;100.00;61273.97;5135035;27;20057;-64
2024/03/20 07:56:11;;;;;;;24.83;14.63;;;;;;;-145.63;100.00;61273.97;5134899;27;20041;-64
2024/03/20 07:58:37;;;;;;;27.23;14.75;;;;;;;-145.63;100.00;61273.97;5135823;27;20023;-63
2024/03/20 08:01:06;;;;;;;27.50;14.88;;;;;;;-145.63;100.00;61273.97;5130395;27;20028;-63
2024/03/20 08:03:32;;;;;;;28.13;15.27;;;;;;;-145.63;100.00;61273.97;5132769;27;20471;-64
2024/03/20 08:05:58;;;;;;;26.67;16.30;;;;;;;-145.63;100.00;61273.97;5100931;28;20039;-64
2024/03/20 08:08:24;;;;;;;27.65;14.35;;;;;;;-145.63;100.00;61273.97;5122089;27;20391;-63
2024/03/20 08:10:50;;;;;;;32.38;16.63;;;;;;;-145.63;100.00;61273.97;5129052;27;20038;-64
2024/03/20 08:13:16;;;;;;;22.55;12.23;;;;;;;-145.63;100.00;61273.97;5128616;27;20040;-64
2024/03/20 08:15:42;;;;;;;26.33;13.10;;;;;;;-145.63;100.00;61273.97;5115428;27;20027;-64
2024/03/20 08:18:10;;;;;;;28.95;15.98;;;;;;;-145.63;100.00;61273.97;5134321;27;20031;-64
2024/03/20 08:20:39;;;;;;;26.55;14.90;;;;;;;-145.63;100.00;61273.97;5117242;27;20028;-64
2024/03/20 08:23:06;;;;;;;23.33;14.25;;;;;;;-145.63;100.00;61273.97;5128748;27;20047;-63
2024/03/20 08:25:32;;;;;;;27.65;14.38;;;;;;;-145.63;100.00;61273.97;5126105;27;20463;-62
2024/03/20 08:27:57;;;;;;;33.85;15.75;;;;;;;-145.63;100.00;61273.97;5118960;27;20059;-62
2024/03/20 08:30:24;;;;;;;27.58;15.40;;;;;;;-145.63;100.00;61273.97;5135824;27;20034;-63
2024/03/20 08:32:50;;;;;;;27.75;14.48;;;;;;;-145.63;100.00;61273.97;5135101;27;20444;-63
2024/03/20 08:35:17;;;;;;;21.05;12.30;;;;;;;-145.63;100.00;61273.97;5119904;27;20092;-64
2024/03/20 08:37:46;;;;;;;17.52;11.57;;;;;;;-145.63;100.00;61273.97;5125336;27;20029;-63
2024/03/20 08:40:15;;;;;;;26.38;12.25;;;;;;;-145.63;100.00;61273.97;5128963;27;20035;-62
2024/03/20 08:42:42;;;;;;;25.75;11.65;;;;;;;-145.63;100.00;61273.97;5116457;27;20110;-62
2024/03/20 08:45:09;;;;;;;20.92;12.32;;;;;;;-145.63;100.00;61273.97;5135284;27;20023;-63
2024/03/20 08:47:35;;;;;;;20.80;13.43;;;;;;;-145.63;100.00;61273.97;5117326;27;20298;-62
2024/03/20 08:50:03;;;;;;;22.77;13.35;;;;;;;-145.63;100.00;61273.97;5124621;27;20036;-64
2024/03/20 08:52:31;;;;;;;26.25;13.82;;;;;;;-145.63;100.00;61273.97;5123434;27;20444;-62
2024/03/20 08:54:57;;;;;;;28.10;15.45;;;;;;;-145.63;100.00;61273.97;5133286;27;20114;-63
2024/03/20 08:57:23;;;;;;;31.80;16.10;;;;;;;-145.63;100.00;61273.97;5135199;27;20062;-62
2024/03/20 08:59:48;;;;;;;28.42;15.52;;;;;;;-145.63;100.00;61273.97;5115259;27;20043;-62
2024/03/20 09:02:14;;;;;;;28.38;16.83;;;;;;;-145.63;100.00;61273.97;5129117;27;20062;-61
2024/03/20 09:04:40;;;;;;;34.47;16.63;;;;;;;-145.63;100.00;61273.97;5135077;27;20118;-62
2024/03/20 09:07:07;;;;;;;30.73;15.07;;;;;;;-145.63;100.00;61273.97;5129109;27;20073;-63
2024/03/20 09:09:32;;;;;;;18.90;13.43;;;;;;;-145.63;100.00;61273.97;5114695;28;20194;-62
2024/03/20 09:11:59;;;;;;;26.77;12.57;;;;;;;-145.63;100.00;61273.97;5134573;27;20107;-63
2024/03/20 09:14:24;;;;;;;21.20;12.70;;;;;;;-145.63;100.00;61273.97;5118363;27;20080;-62
2024/03/20 09:16:53;;;;;;;20.33;11.98;;;;;;;-145.63;100.00;61273.97;5125484;27;20023;-61
2024/03/20 09:19:19;;;;;;;20.08;12.35;;;;;;;-145.63;100.00;61273.97;5127640;27;20050;-63
2024/03/20 09:21:45;;;;;;;23.17;13.15;;;;;;;-145.63;100.00;61273.97;5115939;27;20039;-62
2024/03/20 09:24:19;;;;;;;24.95;12.95;;;;;;;-145.63;100.00;61273.97;5126572;27;20126;-61
2024/03/20 09:26:46;;;;;;;20.35;12.60;;;;;;;-145.63;100.00;61273.97;5133018;27;20054;-63
2024/03/20 09:29:12;;;;;;;21.85;13.10;;;;;;;-145.63;100.00;61273.97;5119636;27;20046;-64
2024/03/20 09:31:38;;;;;;;24.75;13.40;;;;;;;-145.63;100.00;61273.97;5123455;27;20027;-65
2024/03/20 09:34:04;;;;;;;22.63;12.43;;;;;;;-145.63;100.00;61273.97;5129578;27;20448;-62
2024/03/20 09:36:29;;;;;;;22.23;13.85;;;;;;;-145.63;100.00;61273.97;5113952;28;20165;-64
2024/03/20 09:38:55;;;;;;;21.92;13.98;;;;;;;-145.63;100.00;61273.97;5133969;27;20027;-63
2024/03/20 09:41:23;;;;;;;20.25;12.52;;;;;;;-145.63;100.00;61273.97;5118725;27;20067;-64
2024/03/20 09:43:52;;;;;;;24.33;13.10;;;;;;;-145.63;100.00;61273.97;5123679;27;20114;-62
2024/03/20 09:46:19;;;;;;;23.33;13.95;;;;;;;-145.63;100.00;61273.97;5126689;27;20031;-62
2024/03/20 09:48:48;;;;;;;24.65;14.07;;;;;;;-145.63;100.00;61273.97;5115431;27;20027;-63
2024/03/20 09:51:17;;;;;;;24.25;15.32;;;;;;;-145.63;100.00;61273.97;5120623;27;20042;-63
2024/03/20 09:53:43;;;;;;;21.27;14.75;;;;;;;-145.63;100.00;61273.97;5131606;27;20042;-62
2024/03/20 09:56:12;;;;;;;25.15;14.73;;;;;;;-145.63;100.00;61273.97;5120009;27;20028;-63
2024/03/20 09:58:40;;;;;;;22.55;14.20;;;;;;;-145.63;100.00;61273.97;5113463;28;20024;-61
2024/03/20 10:01:16;;;;;;;19.08;13.65;;;;;;;-145.63;100.00;61273.97;5117400;27;20027;-62
2024/03/20 10:03:43;;;;;;;22.25;12.32;;;;;;;-145.63;100.00;61273.97;5114348;27;20084;-63
2024/03/20 10:06:10;;;;;;;20.13;12.23;;;;;;;-145.63;100.00;61273.97;5134008;27;20090;-63
2024/03/20 10:08:39;;;;;;;20.17;11.93;;;;;;;-145.63;100.00;61273.97;5116613;27;20092;-62
2024/03/20 10:11:07;;;;;;;21.27;12.75;;;;;;;-145.63;100.00;61273.97;5116470;27;20050;-62
2024/03/20 10:13:34;;;;;;;21.83;12.00;;;;;;;-145.63;100.00;61273.97;5121318;27;20524;-62
2024/03/20 10:16:13;;;;;;;15.48;9.65;;;;;;;-145.63;100.00;61273.97;5129890;27;20468;-61
2024/03/20 10:18:41;;;;;;;18.88;11.48;;;;;;;-145.63;100.00;61273.97;5113572;28;20042;-62
2024/03/20 10:21:07;;;;;;;19.58;12.35;;;;;;;-145.63;100.00;61273.97;5133204;27;20034;-62
2024/03/20 10:23:44;;;;;;;20.48;12.02;;;;;;;-145.63;100.00;61273.97;5116947;27;20047;-63
2024/03/20 10:26:15;;;;;;;19.92;12.27;;;;;;;-145.63;100.00;61273.97;5126422;27;20087;-62
2024/03/20 10:28:43;;;;;;;21.30;12.80;;;;;;;-145.63;100.00;61273.97;5124233;27;20034;-63
2024/03/20 10:31:10;;;;;;;19.65;13.15;;;;;;;-145.63;100.00;61273.97;5117446;27;20084;-62
2024/03/20 10:33:38;;;;;;;24.50;14.05;;;;;;;-145.63;100.00;61273.97;5132994;27;20027;-62
2024/03/20 10:36:04;;;;;;;17.42;13.15;;;;;;;-145.63;100.00;61273.97;5112529;28;20034;-63
2024/03/20 10:38:34;;;;;;;23.10;14.40;;;;;;;-145.63;100.00;61273.97;5119251;28;20093;-62
2024/03/20 10:41:02;;;;;;;22.95;13.57;;;;;;;-145.63;100.00;61273.97;5124217;28;20035;-62
2024/03/20 10:43:29;;;;;;;20.23;13.75;;;;;;;-145.63;100.00;61273.97;5130346;28;20029;-62
2024/03/20 10:45:59;;;;;;;20.90;14.00;;;;;;;-145.63;100.00;61273.97;5130463;28;20363;-62
2024/03/20 10:48:25;;;;;;;21.63;13.82;;;;;;;-145.63;100.00;61273.97;5129823;28;20050;-63
2024/03/20 10:50:55;;;;;;;20.33;13.07;;;;;;;-145.63;100.00;61273.97;5117550;28;20455;-63
2024/03/20 10:53:23;;;;;;;19.63;14.15;;;;;;;-145.63;100.00;61273.97;5127392;28;20123;-64